sensor_id;sensor_type;location;lat;lon;timestamp;pressure;altitude;pressure_sealevel;temperature;humidity
77739;BME280;66904;59.926;30.404;2023-06-26T00:02:55;101577.00;;;27.89;45.18
77739;BME280;66904;59.926;30.404;2023-06-26T00:07:58;101573.00;;;27.92;45.54
77739;BME280;66904;59.926;30.404;2023-06-26T00:13:00;101576.56;;;27.92;45.47
77739;BME280;66904;59.926;30.404;2023-06-26T00:18:02;101576.38;;;27.94;45.38
77739;BME280;66904;59.926;30.404;2023-06-26T00:23:03;101578.25;;;27.93;44.90
77739;BME280;66904;59.926;30.404;2023-06-26T00:28:07;101568.81;;;27.89;44.98
77739;BME280;66904;59.926;30.404;2023-06-26T00:33:20;101577.41;;;27.86;45.20
77739;BME280;66904;59.926;30.404;2023-06-26T00:38:20;101575.69;;;27.79;45.26
77739;BME280;66904;59.926;30.404;2023-06-26T00:43:21;101567.78;;;27.77;45.37
77739;BME280;66904;59.926;30.404;2023-06-26T00:48:22;101560.22;;;27.72;45.34
77739;BME280;66904;59.926;30.404;2023-06-26T00:53:22;101567.78;;;27.77;45.51
77739;BME280;66904;59.926;30.404;2023-06-26T00:58:24;101557.69;;;27.78;45.53
77739;BME280;66904;59.926;30.404;2023-06-26T01:03:25;101556.66;;;27.79;45.68
77739;BME280;66904;59.926;30.404;2023-06-26T01:08:26;101556.47;;;27.80;45.37
77739;BME280;66904;59.926;30.404;2023-06-26T01:13:28;101546.19;;;27.76;45.46
77739;BME280;66904;59.926;30.404;2023-06-26T01:18:30;101559.81;;;27.82;45.28
77739;BME280;66904;59.926;30.404;2023-06-26T01:24:16;101557.94;;;27.89;44.84
77739;BME280;66904;59.926;30.404;2023-06-26T01:29:37;101555.84;;;27.85;45.10
77739;BME280;66904;59.926;30.404;2023-06-26T01:34:38;101557.34;;;27.87;45.05
77739;BME280;66904;59.926;30.404;2023-06-26T01:39:38;101552.94;;;27.86;45.12
77739;BME280;66904;59.926;30.404;2023-06-26T01:44:48;101551.25;;;27.85;44.69
77739;BME280;66904;59.926;30.404;2023-06-26T01:49:54;101552.69;;;27.81;44.63
77739;BME280;66904;59.926;30.404;2023-06-26T01:55:09;101550.38;;;27.78;45.07
77739;BME280;66904;59.926;30.404;2023-06-26T02:00:11;101551.03;;;27.73;44.99
77739;BME280;66904;59.926;30.404;2023-06-26T02:05:12;101555.38;;;27.68;44.81
77739;BME280;66904;59.926;30.404;2023-06-26T02:10:13;101543.44;;;27.62;44.99
77739;BME280;66904;59.926;30.404;2023-06-26T02:15:16;101547.19;;;27.61;44.97
77739;BME280;66904;59.926;30.404;2023-06-26T02:20:17;101543.03;;;27.65;44.95
77739;BME280;66904;59.926;30.404;2023-06-26T02:25:17;101550.59;;;27.70;44.63
77739;BME280;66904;59.926;30.404;2023-06-26T02:30:21;101548.72;;;27.70;45.01
77739;BME280;66904;59.926;30.404;2023-06-26T02:35:37;101551.88;;;27.74;44.58
77739;BME280;66904;59.926;30.404;2023-06-26T02:40:37;101545.59;;;27.73;44.71
77739;BME280;66904;59.926;30.404;2023-06-26T02:45:53;101558.97;;;27.75;44.90
77739;BME280;66904;59.926;30.404;2023-06-26T02:50:53;101556.47;;;27.73;44.88
77739;BME280;66904;59.926;30.404;2023-06-26T02:55:54;101561.91;;;27.73;44.83
77739;BME280;66904;59.926;30.404;2023-06-26T03:00:54;101552.66;;;27.68;44.19
77739;BME280;66904;59.926;30.404;2023-06-26T03:06:07;101552.88;;;27.66;44.88
77739;BME280;66904;59.926;30.404;2023-06-26T03:11:08;101548.06;;;27.68;44.77
77739;BME280;66904;59.926;30.404;2023-06-26T03:16:09;101527.75;;;27.64;44.65
77739;BME280;66904;59.926;30.404;2023-06-26T03:21:09;101529.25;;;27.60;44.70
77739;BME280;66904;59.926;30.404;2023-06-26T03:26:10;101533.00;;;27.66;44.40
77739;BME280;66904;59.926;30.404;2023-06-26T03:31:13;101544.50;;;27.68;44.49
77739;BME280;66904;59.926;30.404;2023-06-26T03:36:14;101534.44;;;27.62;44.28
77739;BME280;66904;59.926;30.404;2023-06-26T03:41:14;101545.34;;;27.68;44.11
77739;BME280;66904;59.926;30.404;2023-06-26T03:46:15;101540.75;;;27.69;44.41
77739;BME280;66904;59.926;30.404;2023-06-26T03:51:18;101540.56;;;27.70;44.27
77739;BME280;66904;59.926;30.404;2023-06-26T03:56:28;101526.31;;;27.68;44.89
77739;BME280;66904;59.926;30.404;2023-06-26T04:01:28;101534.69;;;27.67;44.51
77739;BME280;66904;59.926;30.404;2023-06-26T04:06:29;101537.19;;;27.68;44.71
77739;BME280;66904;59.926;30.404;2023-06-26T04:11:31;101541.78;;;27.68;44.89
77739;BME280;66904;59.926;30.404;2023-06-26T04:16:32;101534.47;;;27.68;44.61
77739;BME280;66904;59.926;30.404;2023-06-26T04:21:32;101528.41;;;27.66;44.63
77739;BME280;66904;59.926;30.404;2023-06-26T04:26:33;101526.94;;;27.64;44.41
77739;BME280;66904;59.926;30.404;2023-06-26T04:31:34;101537.63;;;27.72;45.04
77739;BME280;66904;59.926;30.404;2023-06-26T04:36:34;101528.19;;;27.74;44.78
77739;BME280;66904;59.926;30.404;2023-06-26T04:41:39;101523.84;;;27.80;45.18
77739;BME280;66904;59.926;30.404;2023-06-26T04:46:39;101522.34;;;27.84;45.19
77739;BME280;66904;59.926;30.404;2023-06-26T04:51:42;101521.13;;;27.87;44.81
77739;BME280;66904;59.926;30.404;2023-06-26T04:56:43;101524.69;;;27.87;44.97
77739;BME280;66904;59.926;30.404;2023-06-26T05:01:50;101525.50;;;27.88;44.72
77739;BME280;66904;59.926;30.404;2023-06-26T05:06:51;101530.31;;;27.86;44.76
77739;BME280;66904;59.926;30.404;2023-06-26T05:11:51;101525.91;;;27.85;44.86
77739;BME280;66904;59.926;30.404;2023-06-26T05:16:51;101525.50;;;27.81;44.49
77739;BME280;66904;59.926;30.404;2023-06-26T05:21:52;101525.72;;;27.80;44.79
77739;BME280;66904;59.926;30.404;2023-06-26T05:26:53;101527.16;;;27.76;44.38
77739;BME280;66904;59.926;30.404;2023-06-26T05:31:56;101521.31;;;27.79;44.74
77739;BME280;66904;59.926;30.404;2023-06-26T05:36:58;101527.78;;;27.84;44.69
77739;BME280;66904;59.926;30.404;2023-06-26T05:41:59;101518.41;;;27.87;44.81
77739;BME280;66904;59.926;30.404;2023-06-26T05:47:12;101527.84;;;27.97;45.03
77739;BME280;66904;59.926;30.404;2023-06-26T05:52:15;101523.44;;;28.03;44.74
77739;BME280;66904;59.926;30.404;2023-06-26T05:57:17;101522.63;;;28.09;45.00
77739;BME280;66904;59.926;30.404;2023-06-26T06:02:18;101521.78;;;28.15;44.92
77739;BME280;66904;59.926;30.404;2023-06-26T06:07:18;101520.13;;;28.20;45.22
77739;BME280;66904;59.926;30.404;2023-06-26T06:12:19;101527.88;;;28.23;44.96
77739;BME280;66904;59.926;30.404;2023-06-26T06:17:20;101532.91;;;28.27;45.14
77739;BME280;66904;59.926;30.404;2023-06-26T06:22:21;101534.78;;;28.26;45.20
77739;BME280;66904;59.926;30.404;2023-06-26T06:27:21;101532.66;;;28.28;45.22
77739;BME280;66904;59.926;30.404;2023-06-26T06:32:22;101519.28;;;28.20;45.18
77739;BME280;66904;59.926;30.404;2023-06-26T06:37:22;101528.91;;;28.29;44.92
77739;BME280;66904;59.926;30.404;2023-06-26T06:42:23;101529.53;;;28.31;45.30
77739;BME280;66904;59.926;30.404;2023-06-26T06:47:23;101524.72;;;28.33;45.20
77739;BME280;66904;59.926;30.404;2023-06-26T06:52:27;101524.09;;;28.31;45.29
77739;BME280;66904;59.926;30.404;2023-06-26T06:57:27;101519.91;;;28.35;45.41
77739;BME280;66904;59.926;30.404;2023-06-26T07:02:28;101514.69;;;28.34;45.28
77739;BME280;66904;59.926;30.404;2023-06-26T07:07:29;101525.16;;;28.37;45.28
77739;BME280;66904;59.926;30.404;2023-06-26T07:18:26;101522.44;;;28.37;45.54
77739;BME280;66904;59.926;30.404;2023-06-26T07:23:26;101524.31;;;28.36;45.26
77739;BME280;66904;59.926;30.404;2023-06-26T07:28:27;101521.59;;;28.36;45.22
77739;BME280;66904;59.926;30.404;2023-06-26T07:33:28;101526.59;;;28.39;45.38
77739;BME280;66904;59.926;30.404;2023-06-26T07:38:28;101524.50;;;28.41;45.60
77739;BME280;66904;59.926;30.404;2023-06-26T07:43:29;101523.47;;;28.42;45.41
77739;BME280;66904;59.926;30.404;2023-06-26T07:48:35;101521.78;;;28.41;45.39
77739;BME280;66904;59.926;30.404;2023-06-26T07:53:35;101512.38;;;28.44;45.50
77739;BME280;66904;59.926;30.404;2023-06-26T07:58:36;101518.84;;;28.43;45.31
77739;BME280;66904;59.926;30.404;2023-06-26T08:03:36;101519.47;;;28.45;45.30
77739;BME280;66904;59.926;30.404;2023-06-26T08:08:37;101519.03;;;28.48;44.86
77739;BME280;66904;59.926;30.404;2023-06-26T08:13:37;101516.13;;;28.49;45.22
77739;BME280;66904;59.926;30.404;2023-06-26T08:18:38;101504.19;;;28.50;45.61
77739;BME280;66904;59.926;30.404;2023-06-26T08:23:38;101509.22;;;28.53;45.29
77739;BME280;66904;59.926;30.404;2023-06-26T08:28:39;101511.50;;;28.56;45.55
77739;BME280;66904;59.926;30.404;2023-06-26T08:33:39;101505.00;;;28.57;45.59
77739;BME280;66904;59.926;30.404;2023-06-26T08:38:41;101514.66;;;28.60;45.78
77739;BME280;66904;59.926;30.404;2023-06-26T08:43:41;101505.41;;;28.61;45.38
77739;BME280;66904;59.926;30.404;2023-06-26T08:48:58;101494.34;;;28.56;45.66
77739;BME280;66904;59.926;30.404;2023-06-26T08:54:02;101511.25;;;28.64;45.38
77739;BME280;66904;59.926;30.404;2023-06-26T08:59:08;101517.56;;;28.65;45.61
77739;BME280;66904;59.926;30.404;2023-06-26T09:04:10;101512.09;;;28.65;45.32
77739;BME280;66904;59.926;30.404;2023-06-26T09:09:11;101508.16;;;28.67;45.33
77739;BME280;66904;59.926;30.404;2023-06-26T09:14:12;101510.66;;;28.69;45.14
77739;BME280;66904;59.926;30.404;2023-06-26T09:19:13;101499.34;;;28.65;45.15
77739;BME280;66904;59.926;30.404;2023-06-26T09:24:14;101500.81;;;28.68;45.72
77739;BME280;66904;59.926;30.404;2023-06-26T09:29:15;101498.50;;;28.71;45.33
77739;BME280;66904;59.926;30.404;2023-06-26T09:34:17;101490.34;;;28.71;45.74
77739;BME280;66904;59.926;30.404;2023-06-26T09:39:20;101487.41;;;28.73;45.86
77739;BME280;66904;59.926;30.404;2023-06-26T09:44:21;101488.88;;;28.76;46.01
77739;BME280;66904;59.926;30.404;2023-06-26T09:49:23;101476.94;;;28.77;46.17
77739;BME280;66904;59.926;30.404;2023-06-26T09:54:24;101482.16;;;28.78;46.24
77739;BME280;66904;59.926;30.404;2023-06-26T09:59:25;101471.25;;;28.78;46.08
77739;BME280;66904;59.926;30.404;2023-06-26T10:04:26;101472.28;;;28.77;46.08
77739;BME280;66904;59.926;30.404;2023-06-26T10:09:27;101467.69;;;28.78;45.87
77739;BME280;66904;59.926;30.404;2023-06-26T10:14:33;101457.63;;;28.78;46.12
77739;BME280;66904;59.926;30.404;2023-06-26T10:19:35;101452.81;;;28.80;45.86
77739;BME280;66904;59.926;30.404;2023-06-26T10:24:39;101449.69;;;28.77;46.24
77739;BME280;66904;59.926;30.404;2023-06-26T10:29:42;101440.66;;;28.83;46.15
77739;BME280;66904;59.926;30.404;2023-06-26T10:34:44;101442.31;;;28.84;46.04
77739;BME280;66904;59.926;30.404;2023-06-26T10:44:47;101443.38;;;28.83;46.04
77739;BME280;66904;59.926;30.404;2023-06-26T10:49:47;101444.41;;;28.82;46.26
77739;BME280;66904;59.926;30.404;2023-06-26T10:54:48;101453.44;;;28.82;46.29
77739;BME280;66904;59.926;30.404;2023-06-26T10:59:49;101441.50;;;28.83;45.95
77739;BME280;66904;59.926;30.404;2023-06-26T11:04:52;101436.03;;;28.83;45.93
77739;BME280;66904;59.926;30.404;2023-06-26T11:10:01;101437.69;;;28.84;45.75
77739;BME280;66904;59.926;30.404;2023-06-26T11:15:10;101425.34;;;28.82;45.68
77739;BME280;66904;59.926;30.404;2023-06-26T11:20:12;101425.34;;;28.82;45.76
77739;BME280;66904;59.926;30.404;2023-06-26T11:25:13;101418.84;;;28.83;45.55
77739;BME280;66904;59.926;30.404;2023-06-26T11:30:24;101420.91;;;28.87;45.42
77739;BME280;66904;59.926;30.404;2023-06-26T11:35:26;101419.47;;;28.85;45.13
77739;BME280;66904;59.926;30.404;2023-06-26T11:40:33;101416.97;;;28.83;45.24
77739;BME280;66904;59.926;30.404;2023-06-26T11:45:33;101424.91;;;28.85;45.19
77739;BME280;66904;59.926;30.404;2023-06-26T11:50:37;101414.03;;;28.85;44.79
77739;BME280;66904;59.926;30.404;2023-06-26T11:55:41;101409.41;;;28.85;44.97
77739;BME280;66904;59.926;30.404;2023-06-26T12:00:42;101409.41;;;28.85;45.10
77739;BME280;66904;59.926;30.404;2023-06-26T12:05:44;101415.69;;;28.86;45.13
77739;BME280;66904;59.926;30.404;2023-06-26T12:10:45;101418.44;;;28.86;44.90
77739;BME280;66904;59.926;30.404;2023-06-26T12:15:46;101426.59;;;28.86;44.93
77739;BME280;66904;59.926;30.404;2023-06-26T12:20:46;101441.91;;;28.87;44.71
77739;BME280;66904;59.926;30.404;2023-06-26T12:25:47;101450.06;;;28.87;44.79
77739;BME280;66904;59.926;30.404;2023-06-26T12:31:15;101453.16;;;28.90;44.58
77739;BME280;66904;59.926;30.404;2023-06-26T12:36:16;101455.53;;;28.87;44.71
77739;BME280;66904;59.926;30.404;2023-06-26T12:41:16;101440.81;;;28.88;44.75
77739;BME280;66904;59.926;30.404;2023-06-26T12:46:17;101442.72;;;28.87;44.80
77739;BME280;66904;59.926;30.404;2023-06-26T12:51:17;101451.97;;;28.80;44.57
77739;BME280;66904;59.926;30.404;2023-06-26T12:56:18;101529.88;;;28.87;44.81
77739;BME280;66904;59.926;30.404;2023-06-26T13:01:20;101502.88;;;28.86;44.67
77739;BME280;66904;59.926;30.404;2023-06-26T13:06:20;101489.69;;;28.83;44.60
77739;BME280;66904;59.926;30.404;2023-06-26T13:11:21;101493.25;;;28.83;44.73
77739;BME280;66904;59.926;30.404;2023-06-26T13:16:22;101483.41;;;28.82;44.88
77739;BME280;66904;59.926;30.404;2023-06-26T13:21:23;101481.72;;;28.81;45.04
77739;BME280;66904;59.926;30.404;2023-06-26T13:26:24;101476.25;;;28.81;44.93
77739;BME280;66904;59.926;30.404;2023-06-26T13:31:25;101471.88;;;28.80;44.81
77739;BME280;66904;59.926;30.404;2023-06-26T13:36:26;101464.53;;;28.81;45.08
77739;BME280;66904;59.926;30.404;2023-06-26T13:41:27;101447.56;;;28.79;45.10
77739;BME280;66904;59.926;30.404;2023-06-26T13:46:29;101435.66;;;28.73;45.05
77739;BME280;66904;59.926;30.404;2023-06-26T13:51:29;101448.41;;;28.79;45.38
77739;BME280;66904;59.926;30.404;2023-06-26T13:56:30;101428.31;;;28.80;45.06
77739;BME280;66904;59.926;30.404;2023-06-26T14:01:30;101414.28;;;28.77;45.68
77739;BME280;66904;59.926;30.404;2023-06-26T14:06:31;101434.56;;;28.81;45.56
77739;BME280;66904;59.926;30.404;2023-06-26T14:11:32;101431.63;;;28.82;46.28
77739;BME280;66904;59.926;30.404;2023-06-26T14:16:34;101425.75;;;28.85;45.90
77739;BME280;66904;59.926;30.404;2023-06-26T14:21:34;101414.22;;;28.90;46.22
77739;BME280;66904;59.926;30.404;2023-06-26T14:26:35;101410.22;;;28.92;46.36
77739;BME280;66904;59.926;30.404;2023-06-26T14:31:36;101407.25;;;28.94;46.67
77739;BME280;66904;59.926;30.404;2023-06-26T14:36:37;101405.38;;;28.94;46.64
77739;BME280;66904;59.926;30.404;2023-06-26T14:41:38;101415.22;;;28.95;46.87
77739;BME280;66904;59.926;30.404;2023-06-26T14:46:38;101408.94;;;28.95;46.71
77739;BME280;66904;59.926;30.404;2023-06-26T14:51:39;101400.56;;;28.96;46.89
77739;BME280;66904;59.926;30.404;2023-06-26T14:56:40;101398.03;;;28.95;47.25
77739;BME280;66904;59.926;30.404;2023-06-26T15:01:43;101393.44;;;28.95;46.68
77739;BME280;66904;59.926;30.404;2023-06-26T15:06:44;101387.78;;;28.90;46.67
77739;BME280;66904;59.926;30.404;2023-06-26T15:11:44;101369.97;;;28.94;47.24
77739;BME280;66904;59.926;30.404;2023-06-26T15:16:45;101375.66;;;28.93;47.31
77739;BME280;66904;59.926;30.404;2023-06-26T15:21:45;101364.75;;;28.93;47.02
77739;BME280;66904;59.926;30.404;2023-06-26T15:26:46;101356.56;;;28.93;47.09
77739;BME280;66904;59.926;30.404;2023-06-26T15:31:46;101358.22;;;28.94;46.73
77739;BME280;66904;59.926;30.404;2023-06-26T15:36:48;101345.69;;;28.93;47.31
77739;BME280;66904;59.926;30.404;2023-06-26T15:41:50;101346.50;;;28.93;47.02
77739;BME280;66904;59.926;30.404;2023-06-26T15:46:50;101351.72;;;28.95;46.69
77739;BME280;66904;59.926;30.404;2023-06-26T15:51:51;101360.75;;;28.95;47.07
77739;BME280;66904;59.926;30.404;2023-06-26T15:56:52;101364.06;;;28.97;47.29
77739;BME280;66904;59.926;30.404;2023-06-26T16:01:53;101361.97;;;28.99;47.17
77739;BME280;66904;59.926;30.404;2023-06-26T16:06:54;101360.13;;;28.93;47.15
77739;BME280;66904;59.926;30.404;2023-06-26T16:11:56;101376.44;;;29.00;47.36
77739;BME280;66904;59.926;30.404;2023-06-26T16:16:57;101373.94;;;28.98;47.41
77739;BME280;66904;59.926;30.404;2023-06-26T16:21:58;101371.81;;;29.00;47.29
77739;BME280;66904;59.926;30.404;2023-06-26T16:26:59;101362.59;;;29.01;47.86
77739;BME280;66904;59.926;30.404;2023-06-26T16:32:00;101355.69;;;28.99;47.71
77739;BME280;66904;59.926;30.404;2023-06-26T16:37:01;101361.25;;;29.10;47.88
77739;BME280;66904;59.926;30.404;2023-06-26T16:42:07;101358.72;;;29.15;47.90
77739;BME280;66904;59.926;30.404;2023-06-26T16:47:07;101365.63;;;29.18;48.11
77739;BME280;66904;59.926;30.404;2023-06-26T16:52:09;101346.81;;;29.10;48.33
77739;BME280;66904;59.926;30.404;2023-06-26T16:57:09;101346.75;;;29.23;48.54
77739;BME280;66904;59.926;30.404;2023-06-26T17:02:10;101354.91;;;29.23;49.07
77739;BME280;66904;59.926;30.404;2023-06-26T17:07:11;101345.91;;;29.22;48.92
77739;BME280;66904;59.926;30.404;2023-06-26T17:18:11;101350.50;;;29.29;49.30
77739;BME280;66904;59.926;30.404;2023-06-26T17:23:39;101347.38;;;29.25;49.08
77739;BME280;66904;59.926;30.404;2023-06-26T17:28:40;101337.09;;;29.20;48.67
77739;BME280;66904;59.926;30.404;2023-06-26T17:33:40;101336.69;;;29.17;48.43
77739;BME280;66904;59.926;30.404;2023-06-26T17:44:06;101347.81;;;29.15;48.56
77739;BME280;66904;59.926;30.404;2023-06-26T17:49:07;101344.72;;;29.12;48.40
77739;BME280;66904;59.926;30.404;2023-06-26T17:54:07;101345.53;;;29.12;48.07
77739;BME280;66904;59.926;30.404;2023-06-26T17:59:08;101352.47;;;29.08;47.99
77739;BME280;66904;59.926;30.404;2023-06-26T18:04:09;101348.53;;;29.04;47.88
77739;BME280;66904;59.926;30.404;2023-06-26T18:09:09;101344.56;;;29.00;47.95
77739;BME280;66904;59.926;30.404;2023-06-26T18:14:10;101348.81;;;28.96;48.23
77739;BME280;66904;59.926;30.404;2023-06-26T18:19:11;101356.13;;;28.96;47.68
77739;BME280;66904;59.926;30.404;2023-06-26T18:24:12;101355.94;;;28.91;47.73
77739;BME280;66904;59.926;30.404;2023-06-26T18:29:12;101358.06;;;28.89;48.03
77739;BME280;66904;59.926;30.404;2023-06-26T18:34:13;101356.34;;;28.94;48.37
77739;BME280;66904;59.926;30.404;2023-06-26T18:39:13;101357.38;;;29.00;48.29
77739;BME280;66904;59.926;30.404;2023-06-26T18:44:14;101364.00;;;29.10;48.21
77739;BME280;66904;59.926;30.404;2023-06-26T18:49:14;101346.44;;;29.06;48.17
77739;BME280;66904;59.926;30.404;2023-06-26T18:54:15;101367.69;;;29.22;47.84
77739;BME280;66904;59.926;30.404;2023-06-26T18:59:17;101354.50;;;29.26;47.99
77739;BME280;66904;59.926;30.404;2023-06-26T19:04:17;101358.66;;;29.29;47.84
77739;BME280;66904;59.926;30.404;2023-06-26T19:09:18;101346.34;;;29.19;47.68
77739;BME280;66904;59.926;30.404;2023-06-26T19:14:19;101349.88;;;29.27;47.61
77739;BME280;66904;59.926;30.404;2023-06-26T19:19:19;101363.47;;;29.33;47.58
77739;BME280;66904;59.926;30.404;2023-06-26T19:24:20;101366.56;;;29.37;47.66
77739;BME280;66904;59.926;30.404;2023-06-26T19:29:20;101365.97;;;29.35;47.65
77739;BME280;66904;59.926;30.404;2023-06-26T19:34:21;101359.06;;;29.32;47.82
77739;BME280;66904;59.926;30.404;2023-06-26T19:39:23;101362.84;;;29.31;48.27
77739;BME280;66904;59.926;30.404;2023-06-26T19:44:24;101357.63;;;29.30;47.97
77739;BME280;66904;59.926;30.404;2023-06-26T19:49:27;101362.00;;;29.31;47.83
77739;BME280;66904;59.926;30.404;2023-06-26T19:54:28;101354.66;;;29.31;47.91
77739;BME280;66904;59.926;30.404;2023-06-26T19:59:29;101345.63;;;29.31;47.92
77739;BME280;66904;59.926;30.404;2023-06-26T20:04:29;101345.19;;;29.34;47.76
77739;BME280;66904;59.926;30.404;2023-06-26T20:09:30;101342.72;;;29.32;47.73
77739;BME280;66904;59.926;30.404;2023-06-26T20:14:33;101352.81;;;29.25;47.79
77739;BME280;66904;59.926;30.404;2023-06-26T20:19:34;101348.66;;;29.16;47.90
77739;BME280;66904;59.926;30.404;2023-06-26T20:24:34;101351.66;;;29.08;48.14
77739;BME280;66904;59.926;30.404;2023-06-26T20:29:36;101350.66;;;29.02;48.14
77739;BME280;66904;59.926;30.404;2023-06-26T20:34:36;101348.34;;;28.99;48.27
77739;BME280;66904;59.926;30.404;2023-06-26T20:39:37;101346.06;;;28.96;48.22
77739;BME280;66904;59.926;30.404;2023-06-26T20:44:38;101343.13;;;28.98;48.49
77739;BME280;66904;59.926;30.404;2023-06-26T20:49:38;101341.03;;;29.00;48.42
77739;BME280;66904;59.926;30.404;2023-06-26T20:54:39;101338.31;;;29.00;48.41
77739;BME280;66904;59.926;30.404;2023-06-26T20:59:40;101332.44;;;28.96;48.33
77739;BME280;66904;59.926;30.404;2023-06-26T21:04:41;101322.41;;;28.90;47.99
77739;BME280;66904;59.926;30.404;2023-06-26T21:09:41;101328.72;;;28.84;48.16
77739;BME280;66904;59.926;30.404;2023-06-26T21:14:42;101333.34;;;28.84;48.00
77739;BME280;66904;59.926;30.404;2023-06-26T21:19:42;101337.34;;;28.81;48.22
77739;BME280;66904;59.926;30.404;2023-06-26T21:24:43;101319.81;;;28.70;48.30
77739;BME280;66904;59.926;30.404;2023-06-26T21:29:44;101328.16;;;28.76;48.33
77739;BME280;66904;59.926;30.404;2023-06-26T21:35:12;101335.28;;;28.77;48.21
77739;BME280;66904;59.926;30.404;2023-06-26T21:40:40;101347.22;;;28.76;48.79
77739;BME280;66904;59.926;30.404;2023-06-26T21:46:07;101340.94;;;28.75;48.86
77739;BME280;66904;59.926;30.404;2023-06-26T21:51:08;101331.53;;;28.71;48.67
77739;BME280;66904;59.926;30.404;2023-06-26T21:56:09;101336.13;;;28.70;48.56
77739;BME280;66904;59.926;30.404;2023-06-26T22:01:09;101332.59;;;28.70;48.49
77739;BME280;66904;59.926;30.404;2023-06-26T22:06:13;101323.81;;;28.68;48.62
77739;BME280;66904;59.926;30.404;2023-06-26T22:11:13;101334.09;;;28.66;48.50
77739;BME280;66904;59.926;30.404;2023-06-26T22:16:14;101335.94;;;28.65;48.62
77739;BME280;66904;59.926;30.404;2023-06-26T22:21:20;101336.13;;;28.64;48.54
77739;BME280;66904;59.926;30.404;2023-06-26T22:26:24;101330.50;;;28.65;48.10
77739;BME280;66904;59.926;30.404;2023-06-26T22:31:24;101339.31;;;28.61;48.37
77739;BME280;66904;59.926;30.404;2023-06-26T22:36:25;101333.84;;;28.61;48.56
77739;BME280;66904;59.926;30.404;2023-06-26T22:41:57;101335.75;;;28.60;48.38
77739;BME280;66904;59.926;30.404;2023-06-26T22:46:57;101335.56;;;28.55;48.05
77739;BME280;66904;59.926;30.404;2023-06-26T22:51:58;101334.53;;;28.56;48.39
77739;BME280;66904;59.926;30.404;2023-06-26T22:56:59;101334.72;;;28.55;47.87
77739;BME280;66904;59.926;30.404;2023-06-26T23:01:59;101338.50;;;28.54;48.16
77739;BME280;66904;59.926;30.404;2023-06-26T23:07:00;101334.97;;;28.53;48.18
77739;BME280;66904;59.926;30.404;2023-06-26T23:12:08;101340.00;;;28.50;47.95
77739;BME280;66904;59.926;30.404;2023-06-26T23:17:09;101328.88;;;28.51;48.07
77739;BME280;66904;59.926;30.404;2023-06-26T23:22:11;101338.94;;;28.51;48.27
77739;BME280;66904;59.926;30.404;2023-06-26T23:27:12;101327.44;;;28.49;47.64
77739;BME280;66904;59.926;30.404;2023-06-26T23:32:13;101323.66;;;28.50;47.51
77739;BME280;66904;59.926;30.404;2023-06-26T23:37:13;101341.03;;;28.49;47.50
77739;BME280;66904;59.926;30.404;2023-06-26T23:42:14;101328.31;;;28.36;47.71
77739;BME280;66904;59.926;30.404;2023-06-26T23:47:50;101345.03;;;28.46;47.08
77739;BME280;66904;59.926;30.404;2023-06-26T23:52:51;101346.94;;;28.39;47.80
77739;BME280;66904;59.926;30.404;2023-06-26T23:57:52;101343.59;;;28.37;47.52
